createdAt,value
2022-10-01T00:03:48.026Z,100143.50
2022-10-01T00:08:51.357Z,100137.77
2022-10-01T00:13:54.432Z,100134.48
2022-10-01T00:19:00.426Z,100129.67
2022-10-01T00:24:05.392Z,100123.90
2022-10-01T00:29:15.777Z,100116.16
2022-10-01T00:34:18.525Z,100117.33
2022-10-01T00:39:21.880Z,100116.74
2022-10-01T00:44:29.625Z,100111.13
2022-10-01T00:49:35.429Z,100107.65
2022-10-01T00:54:44.378Z,100106.70
2022-10-01T00:59:48.201Z,100110.96
2022-10-01T01:04:50.912Z,100098.81
2022-10-01T01:09:54.627Z,100093.94
2022-10-01T01:15:07.696Z,100091.27
2022-10-01T01:20:13.127Z,100093.90
2022-10-01T01:25:19.512Z,100092.64
2022-10-01T01:30:22.523Z,100093.20
2022-10-01T01:35:38.985Z,100087.67
2022-10-01T01:40:45.064Z,100088.44
2022-10-01T01:45:51.570Z,100098.17
2022-10-01T01:51:04.529Z,100102.55
2022-10-01T01:56:08.047Z,100099.86
2022-10-01T02:01:34.886Z,100100.14
2022-10-01T02:07:09.480Z,100099.27
2022-10-01T02:12:18.171Z,100094.06
2022-10-01T02:17:33.558Z,100093.11
2022-10-01T02:22:48.063Z,100091.42
2022-10-01T02:28:02.274Z,100089.27
2022-10-01T02:33:09.800Z,100084.07
2022-10-01T02:38:16.702Z,100083.41
2022-10-01T02:43:25.238Z,100087.63
2022-10-01T02:48:29.022Z,100084.38
2022-10-01T02:53:37.253Z,100088.55
2022-10-01T02:58:41.381Z,100091.95
2022-10-01T03:03:44.183Z,100091.03
2022-10-01T03:08:46.896Z,100086.43
2022-10-01T03:13:50.002Z,100080.09
2022-10-01T03:18:53.350Z,100072.92
2022-10-01T03:23:56.101Z,100072.83
2022-10-01T03:28:58.855Z,100071.79
2022-10-01T03:34:01.705Z,100068.92
2022-10-01T03:39:04.710Z,100065.84
2022-10-01T03:44:07.439Z,100063.58
2022-10-01T03:49:10.731Z,100059.35
2022-10-01T03:54:13.320Z,100055.98
2022-10-01T03:59:16.221Z,100051.61
2022-10-01T04:04:19.049Z,100047.38
2022-10-01T04:09:21.930Z,100048.41
2022-10-01T04:14:24.648Z,100044.89
2022-10-01T04:19:27.353Z,100041.58
2022-10-01T04:24:30.063Z,100043.66
2022-10-01T04:29:34.755Z,100035.95
2022-10-01T04:34:52.947Z,100031.02
2022-10-01T04:39:55.656Z,100024.55
2022-10-01T04:44:58.439Z,100019.95
2022-10-01T04:50:01.159Z,100012.83
2022-10-01T04:55:04.691Z,100007.45
2022-10-01T05:00:10.228Z,100009.30
2022-10-01T05:05:13.666Z,100006.83
2022-10-01T05:10:21.310Z,100013.69
2022-10-01T05:15:24.003Z,100008.87
2022-10-01T05:20:27.830Z,100010.59
2022-10-01T05:25:30.541Z,100012.09
2022-10-01T05:30:34.357Z,100012.25
2022-10-01T05:35:37.094Z,100006.97
2022-10-01T05:40:39.891Z,100008.19
2022-10-01T05:45:43.181Z,100012.89
2022-10-01T05:50:46.826Z,100016.44
2022-10-01T05:55:49.498Z,100018.29
2022-10-01T06:00:52.168Z,100016.78
2022-10-01T06:05:55.713Z,100013.77
2022-10-01T06:11:02.707Z,100010.90
2022-10-01T06:16:05.573Z,100009.13
2022-10-01T06:21:10.203Z,100006.60
2022-10-01T06:26:12.886Z,100007.92
2022-10-01T06:31:16.556Z,100012.80
2022-10-01T06:36:19.328Z,100007.79
2022-10-01T06:41:21.975Z,100006.25
2022-10-01T06:46:24.703Z,100009.17
2022-10-01T06:51:46.109Z,100010.00
2022-10-01T06:56:48.837Z,100011.66
2022-10-01T07:01:56.333Z,100004.59
2022-10-01T07:06:59.356Z,100002.52
2022-10-01T07:12:02.055Z,99998.88
2022-10-01T07:17:04.754Z,99998.05
2022-10-01T07:22:07.555Z,99994.14
2022-10-01T07:27:10.175Z,99989.22
2022-10-01T07:32:12.950Z,99989.85
2022-10-01T07:37:15.771Z,99989.79
2022-10-01T07:42:18.553Z,99995.09
2022-10-01T07:47:22.777Z,99986.59
2022-10-01T07:52:25.718Z,99983.27
2022-10-01T07:57:28.801Z,99971.91
2022-10-01T08:02:31.700Z,99973.20
2022-10-01T08:07:35.939Z,99971.90
2022-10-01T08:12:38.944Z,99975.81
2022-10-01T08:17:42.603Z,99971.79
2022-10-01T08:22:45.468Z,99968.56
2022-10-01T08:27:48.594Z,99965.12
2022-10-01T08:32:57.524Z,99955.82
2022-10-01T08:38:06.897Z,99949.25
2022-10-01T08:43:38.555Z,99946.48
2022-10-01T08:49:08.899Z,99936.02
2022-10-01T08:54:23.992Z,99936.74
2022-10-01T08:59:39.614Z,99933.12
2022-10-01T09:04:42.354Z,99924.38
2022-10-01T09:09:56.237Z,99919.27
2022-10-01T09:15:23.310Z,99914.93
2022-10-01T09:20:36.584Z,99909.47
2022-10-01T09:25:40.412Z,99900.38
2022-10-01T09:30:50.158Z,99890.15
2022-10-01T09:36:00.332Z,99886.04
2022-10-01T09:41:05.584Z,99878.67
2022-10-01T09:46:17.276Z,99878.66
2022-10-01T09:51:25.384Z,99874.04
2022-10-01T09:56:39.123Z,99868.27
2022-10-01T10:01:53.492Z,99860.84
2022-10-01T10:07:05.218Z,99852.89
2022-10-01T10:12:25.320Z,99845.42
2022-10-01T10:17:28.053Z,99835.52
2022-10-01T10:22:30.732Z,99819.09
2022-10-01T10:27:33.590Z,99807.98
2022-10-01T10:32:36.579Z,99804.82
2022-10-01T10:37:46.962Z,99800.83
2022-10-01T10:42:55.304Z,99798.12
2022-10-01T10:47:58.498Z,99786.41
2022-10-01T10:53:19.122Z,99783.90
2022-10-01T10:58:26.492Z,99775.19
2022-10-01T11:03:32.503Z,99766.91
2022-10-01T11:08:35.935Z,99758.00
2022-10-01T11:13:50.702Z,99758.84
2022-10-01T11:19:20.230Z,99754.45
2022-10-01T11:24:46.273Z,99742.06
2022-10-01T11:30:01.669Z,99743.13
2022-10-01T11:35:19.539Z,99737.81
2022-10-01T11:40:33.936Z,99727.70
2022-10-01T11:45:43.560Z,99725.13
2022-10-01T11:50:52.220Z,99715.51
2022-10-01T11:56:20.948Z,99710.05
2022-10-01T12:02:15.434Z,99704.77
2022-10-01T12:07:36.262Z,99698.42
2022-10-01T12:12:47.479Z,99692.79
2022-10-01T12:17:55.596Z,99681.54
2022-10-01T12:23:02.592Z,99682.39
2022-10-01T12:28:13.042Z,99682.48
2022-10-01T12:33:31.345Z,99675.07
2022-10-01T12:38:58.029Z,99671.45
2022-10-01T12:44:15.332Z,99664.80
2022-10-01T12:49:32.916Z,99656.63
2022-10-01T12:54:50.499Z,99646.59
2022-10-01T13:00:05.271Z,99645.46
2022-10-01T13:05:20.095Z,99636.01
2022-10-01T13:10:38.651Z,99628.90
2022-10-01T13:15:47.745Z,99626.10
2022-10-01T13:20:54.247Z,99624.33
2022-10-01T13:26:06.206Z,99615.43
2022-10-01T13:31:15.010Z,99614.86
2022-10-01T13:36:29.442Z,99609.31
2022-10-01T13:41:34.827Z,99605.42
2022-10-01T13:46:56.637Z,99596.88
2022-10-01T13:51:59.680Z,99584.11
2022-10-01T13:57:36.273Z,99578.52
2022-10-01T14:02:43.359Z,99575.58
2022-10-01T14:07:50.289Z,99564.54
2022-10-01T14:13:15.636Z,99565.79
2022-10-01T14:18:23.579Z,99557.87
2022-10-01T14:23:39.431Z,99554.27
2022-10-01T14:29:00.300Z,99551.94
2022-10-01T14:34:54.144Z,99543.46
2022-10-01T14:40:23.964Z,99535.10
2022-10-01T14:45:27.683Z,99529.71
2022-10-01T14:50:34.256Z,99520.95
2022-10-01T14:55:37.133Z,99512.01
2022-10-01T15:00:48.086Z,99507.48
2022-10-01T15:05:51.723Z,99502.39
2022-10-01T15:11:01.074Z,99496.02
2022-10-01T15:16:04.784Z,99493.72
2022-10-01T15:21:07.727Z,99493.13
2022-10-01T15:26:14.052Z,99489.99
2022-10-01T15:31:17.360Z,99482.48
2022-10-01T15:36:20.351Z,99476.17
2022-10-01T15:41:33.325Z,99478.67
2022-10-01T15:46:37.979Z,99471.20
2022-10-01T15:52:28.617Z,99461.98
2022-10-01T15:57:33.637Z,99457.15
2022-10-01T16:02:36.476Z,99455.17
2022-10-01T16:07:40.657Z,99457.29
2022-10-01T16:12:44.303Z,99452.33
2022-10-01T16:18:21.370Z,99448.88
2022-10-01T16:23:44.887Z,99443.95
2022-10-01T16:28:47.720Z,99440.06
2022-10-01T16:33:50.458Z,99437.20
2022-10-01T16:38:53.776Z,99430.51
2022-10-01T16:43:57.418Z,99425.95
2022-10-01T16:49:00.188Z,99423.50
2022-10-01T16:54:03.835Z,99422.70
2022-10-01T16:59:06.550Z,99417.75
2022-10-01T17:04:15.801Z,99415.70
2022-10-01T17:09:18.667Z,99413.61
2022-10-01T17:14:21.685Z,99409.80
2022-10-01T17:19:25.013Z,99412.03
2022-10-01T17:24:27.755Z,99408.25
2022-10-01T17:29:32.332Z,99405.23
2022-10-01T17:34:35.775Z,99399.13
2022-10-01T17:39:39.510Z,99396.76
2022-10-01T17:44:42.412Z,99390.44
2022-10-01T17:49:45.045Z,99395.30
2022-10-01T17:54:47.727Z,99388.39
2022-10-01T17:59:51.902Z,99386.06
2022-10-01T18:04:54.702Z,99380.27
2022-10-01T18:09:57.484Z,99382.48
2022-10-01T18:15:01.095Z,99381.43
2022-10-01T18:20:06.517Z,99379.38
2022-10-01T18:25:09.391Z,99374.06
2022-10-01T18:30:12.864Z,99371.23
2022-10-01T18:35:21.298Z,99367.58
2022-10-01T18:40:30.749Z,99363.67
2022-10-01T18:45:34.274Z,99358.70
2022-10-01T18:50:52.682Z,99355.42
2022-10-01T18:56:01.221Z,99352.27
2022-10-01T19:01:27.554Z,99350.36
2022-10-01T19:06:37.821Z,99344.95
2022-10-01T19:12:27.075Z,99341.16
2022-10-01T19:17:51.255Z,99332.00
2022-10-01T19:23:35.715Z,99325.73
2022-10-01T19:28:42.717Z,99321.03
2022-10-01T19:33:56.887Z,99318.45
2022-10-01T19:39:04.448Z,99317.63
2022-10-01T19:44:15.437Z,99310.70
2022-10-01T19:49:30.771Z,99309.27
2022-10-01T19:54:37.520Z,99301.28
2022-10-01T19:59:40.997Z,99294.92
2022-10-01T20:04:55.468Z,99297.98
2022-10-01T20:10:48.347Z,99296.13
2022-10-01T20:16:19.235Z,99294.39
2022-10-01T20:21:39.878Z,99303.05
2022-10-01T20:26:48.431Z,99311.36
2022-10-01T20:32:13.392Z,99315.56
2022-10-01T20:37:18.999Z,99312.85
2022-10-01T20:42:31.065Z,99313.69
2022-10-01T20:47:47.791Z,99309.64
2022-10-01T20:53:11.590Z,99307.81
2022-10-01T20:58:23.807Z,99305.41
2022-10-01T21:03:34.884Z,99304.48
2022-10-01T21:08:50.710Z,99299.48
2022-10-01T21:14:03.485Z,99291.64
2022-10-01T21:19:25.718Z,99296.98
2022-10-01T21:25:12.850Z,99303.63
2022-10-01T21:30:16.786Z,99293.41
2022-10-01T21:35:33.292Z,99301.95
2022-10-01T21:40:54.139Z,99304.94
2022-10-01T21:46:07.706Z,99309.52
2022-10-01T21:51:17.644Z,99310.42
2022-10-01T21:56:32.611Z,99312.39
2022-10-01T22:02:03.390Z,99312.41
2022-10-01T22:07:13.505Z,99307.77
2022-10-01T22:12:16.791Z,99307.42
2022-10-01T22:17:26.122Z,99307.91
2022-10-01T22:22:34.089Z,99304.46
2022-10-01T22:27:44.319Z,99303.23
2022-10-01T22:32:55.928Z,99306.36
2022-10-01T22:38:07.330Z,99301.73
2022-10-01T22:43:12.187Z,99298.23
2022-10-01T22:48:28.732Z,99301.84
2022-10-01T22:54:00.331Z,99297.64
2022-10-01T22:59:36.721Z,99295.34
2022-10-01T23:04:39.349Z,99290.88
2022-10-01T23:09:47.289Z,99289.59
2022-10-01T23:15:04.429Z,99284.52
2022-10-01T23:20:10.768Z,99288.23
2022-10-01T23:25:19.239Z,99291.56
2022-10-01T23:30:22.283Z,99288.63
2022-10-01T23:35:27.995Z,99283.92
2022-10-01T23:40:40.956Z,99286.14
2022-10-01T23:45:48.057Z,99282.18
2022-10-01T23:51:09.848Z,99281.63
2022-10-01T23:56:38.752Z,99282.98
